Time;durP1;ratioP1;P1;durP2;ratioP2;P2;SDS_P1;SDS_P2;PMS_P1;PMS_P2;Temp;Humidity;BMP_temperature;BMP_pressure;BME280_temperature;BME280_humidity;BME280_pressure;Samples;Min_cycle;Max_cycle;Signal;HPM_P1;HPM_P2
2021/05/08 00:01:36;;;;;;;5.90;4.72;;;5.80;94.50;;;;;;5073146;28;20079;-82
2021/05/08 00:04:04;;;;;;;7.32;5.47;;;5.80;94.50;;;;;;5071871;28;20035;-82
2021/05/08 00:06:30;;;;;;;10.32;8.75;;;5.70;94.50;;;;;;5071937;28;20460;-81
2021/05/08 00:08:55;;;;;;;13.65;10.05;;;5.60;95.50;;;;;;5073123;28;20029;-81
2021/05/08 00:11:21;;;;;;;14.88;9.65;;;5.50;95.90;;;;;;5073460;28;20024;-82
2021/05/08 00:13:46;;;;;;;13.20;8.45;;;5.60;96.20;;;;;;5073514;28;20134;-82
2021/05/08 00:16:12;;;;;;;11.05;8.77;;;5.60;96.20;;;;;;5077094;28;20024;-82
2021/05/08 00:18:38;;;;;;;10.85;7.53;;;5.60;96.20;;;;;;5075832;28;20051;-82
2021/05/08 00:21:04;;;;;;;8.60;6.65;;;5.60;96.10;;;;;;5077089;28;20433;-82
2021/05/08 00:23:30;;;;;;;8.32;6.80;;;5.60;96.10;;;;;;5075634;28;20024;-82
2021/05/08 00:25:56;;;;;;;8.45;6.20;;;5.60;96.10;;;;;;5075948;28;20031;-82
2021/05/08 00:28:22;;;;;;;9.48;7.03;;;5.60;96.10;;;;;;5075756;28;20025;-82
2021/05/08 00:30:47;;;;;;;7.13;6.07;;;5.70;96.20;;;;;;5076789;28;20025;-82
2021/05/08 00:33:13;;;;;;;9.52;6.53;;;5.70;96.10;;;;;;5075382;28;20055;-82
2021/05/08 00:35:38;;;;;;;8.48;6.35;;;5.60;96.10;;;;;;5076803;28;20545;-82
2021/05/08 00:38:04;;;;;;;8.30;6.72;;;5.60;96.10;;;;;;5076655;28;20028;-82
2021/05/08 00:40:30;;;;;;;7.50;6.57;;;5.60;96.10;;;;;;5076739;28;20029;-82
2021/05/08 00:42:55;;;;;;;7.65;6.25;;;5.60;96.20;;;;;;5076560;28;20537;-81
2021/05/08 00:45:21;;;;;;;7.85;6.53;;;5.60;96.30;;;;;;5075358;28;20579;-82
2021/05/08 00:47:48;;;;;;;9.32;7.15;;;5.60;96.30;;;;;;5075280;28;20028;-82
2021/05/08 00:50:17;;;;;;;7.20;5.72;;;5.60;96.20;;;;;;5075197;28;20490;-82
2021/05/08 00:52:42;;;;;;;9.85;6.18;;;5.60;96.20;;;;;;5075151;28;20476;-82
2021/05/08 00:55:08;;;;;;;7.60;6.60;;;5.50;96.10;;;;;;5076236;28;20039;-82
2021/05/08 00:57:35;;;;;;;6.10;5.32;;;5.50;96.30;;;;;;5075314;28;20031;-82
2021/05/08 01:00:01;;;;;;;11.73;8.13;;;5.50;96.30;;;;;;5075028;28;20020;-82
2021/05/08 01:02:26;;;;;;;9.23;7.80;;;5.40;96.80;;;;;;5076363;28;20017;-82
2021/05/08 01:04:52;;;;;;;9.50;7.85;;;5.40;96.90;;;;;;5076299;28;20483;-82
2021/05/08 01:07:18;;;;;;;7.90;6.40;;;5.30;96.80;;;;;;5074965;28;20029;-82
2021/05/08 01:09:45;;;;;;;8.43;6.18;;;5.30;97.00;;;;;;5074730;28;20467;-82
2021/05/08 01:12:10;;;;;;;6.32;5.45;;;5.20;97.10;;;;;;5074889;28;20060;-81
2021/05/08 01:14:37;;;;;;;7.03;6.10;;;5.20;97.30;;;;;;5074864;28;20059;-82
2021/05/08 01:17:02;;;;;;;7.85;6.03;;;5.20;97.40;;;;;;5076011;28;20024;-82
2021/05/08 01:19:32;;;;;;;7.35;6.15;;;5.20;97.40;;;;;;5074828;28;20017;-81
2021/05/08 01:21:58;;;;;;;9.13;7.13;;;5.30;97.40;;;;;;5074690;28;20503;-81
2021/05/08 01:24:23;;;;;;;7.97;6.57;;;5.40;97.30;;;;;;5074450;28;20028;-81
2021/05/08 01:26:49;;;;;;;9.00;7.40;;;5.40;97.20;;;;;;5074618;28;20021;-81
2021/05/08 01:29:15;;;;;;;14.63;10.07;;;5.40;97.20;;;;;;5075820;28;20032;-82
2021/05/08 01:31:40;;;;;;;18.38;11.75;;;5.40;97.30;;;;;;5074222;28;20095;-81
2021/05/08 01:34:06;;;;;;;17.70;12.60;;;5.40;97.70;;;;;;5074388;28;20078;-82
2021/05/08 01:36:32;;;;;;;17.13;12.90;;;5.40;98.10;;;;;;5075712;28;20040;-82
2021/05/08 01:38:59;;;;;;;15.05;11.55;;;5.40;98.50;;;;;;5074261;28;20028;-82
2021/05/08 01:41:25;;;;;;;17.30;12.77;;;5.40;98.60;;;;;;5075379;28;20472;-82
2021/05/08 01:43:50;;;;;;;20.52;12.98;;;5.50;98.90;;;;;;5074059;28;20036;-82
2021/05/08 01:46:16;;;;;;;15.88;12.30;;;5.50;99.10;;;;;;5074268;28;20024;-82
2021/05/08 01:48:42;;;;;;;17.60;12.73;;;5.50;99.10;;;;;;5075575;28;20040;-82
2021/05/08 01:51:07;;;;;;;16.02;12.48;;;5.50;99.00;;;;;;5074107;28;20074;-82
2021/05/08 01:53:33;;;;;;;16.13;13.10;;;5.60;99.00;;;;;;5075251;28;20119;-82
2021/05/08 01:55:58;;;;;;;17.17;12.90;;;5.60;99.00;;;;;;5073844;28;20056;-82
2021/05/08 01:58:24;;;;;;;16.63;12.70;;;5.60;99.10;;;;;;5075318;28;20016;-82
2021/05/08 02:00:50;;;;;;;15.43;12.23;;;5.60;99.10;;;;;;5075257;28;20101;-82
2021/05/08 02:03:15;;;;;;;15.88;11.50;;;5.70;99.10;;;;;;5075117;28;20383;-82
2021/05/08 02:05:44;;;;;;;16.10;12.23;;;5.70;99.00;;;;;;5073808;28;20032;-82
2021/05/08 02:08:11;;;;;;;14.70;11.27;;;5.70;99.00;;;;;;5073781;28;20077;-82
2021/05/08 02:10:39;;;;;;;14.93;11.68;;;5.80;99.00;;;;;;5073636;28;20081;-82
2021/05/08 02:13:06;;;;;;;14.48;11.55;;;5.70;99.10;;;;;;5073718;28;20073;-82
2021/05/08 02:15:32;;;;;;;14.63;11.95;;;5.80;99.10;;;;;;5073566;28;20021;-82
2021/05/08 02:17:58;;;;;;;15.85;12.02;;;5.80;99.10;;;;;;5074950;28;20492;-82
2021/05/08 02:20:28;;;;;;;16.40;11.60;;;5.80;99.30;;;;;;5074854;28;20050;-82
2021/05/08 02:22:58;;;;;;;;;;;5.80;99.50;;;;;;5073965;28;20020;-82
2021/05/08 02:25:24;;;;;;;17.67;11.35;;;5.70;99.60;;;;;;5073402;28;19999;-82
2021/05/08 02:27:50;;;;;;;15.88;12.38;;;5.60;99.90;;;;;;5073514;28;20432;-82
2021/05/08 02:30:36;;;;;;;15.18;11.52;;;5.70;99.90;;;;;;5074639;28;20103;-82
2021/05/08 02:33:03;;;;;;;15.30;12.20;;;5.80;99.70;;;;;;5073203;28;20052;-82
2021/05/08 02:35:30;;;;;;;18.02;12.25;;;5.80;99.50;;;;;;5074144;28;20020;-82
2021/05/08 02:37:57;;;;;;;18.88;12.15;;;5.90;99.40;;;;;;5073002;28;20479;-82
2021/05/08 02:40:28;;;;;;;17.48;13.43;;;5.90;99.20;;;;;;5072984;28;20027;-82
2021/05/08 02:42:54;;;;;;;14.50;11.23;;;5.80;99.20;;;;;;5074402;28;20498;-82
2021/05/08 02:45:20;;;;;;;13.98;11.95;;;5.80;99.20;;;;;;5074380;28;20032;-82
2021/05/08 02:47:47;;;;;;;19.05;12.45;;;5.80;99.20;;;;;;5074322;28;20501;-82
2021/05/08 02:50:14;;;;;;;15.63;11.60;;;5.80;99.70;;;;;;5073065;28;20085;-82
2021/05/08 02:52:40;;;;;;;16.83;11.50;;;5.80;99.40;;;;;;5072948;28;20048;-82
2021/05/08 02:55:07;;;;;;;14.88;11.75;;;5.80;99.10;;;;;;5074622;28;20480;-82
2021/05/08 02:57:34;;;;;;;13.93;11.05;;;5.90;98.80;;;;;;5072710;28;20027;-82
2021/05/08 03:00:00;;;;;;;16.20;11.45;;;5.90;98.70;;;;;;5074158;28;20021;-82
2021/05/08 03:02:26;;;;;;;16.25;11.40;;;5.90;98.60;;;;;;5072649;28;20028;-82
2021/05/08 03:04:52;;;;;;;16.30;11.38;;;5.90;98.50;;;;;;5074045;28;20044;-82
2021/05/08 03:07:17;;;;;;;18.00;11.88;;;5.90;98.30;;;;;;5072660;28;20498;-82
2021/05/08 03:09:43;;;;;;;15.57;10.55;;;5.90;98.20;;;;;;5073977;28;20078;-82
2021/05/08 03:12:09;;;;;;;14.88;11.02;;;5.80;97.90;;;;;;5072408;28;20062;-82
2021/05/08 03:14:35;;;;;;;15.20;11.45;;;5.80;97.90;;;;;;5072475;28;20110;-82
2021/05/08 03:17:01;;;;;;;17.23;10.80;;;5.80;97.80;;;;;;5072367;28;20032;-82
2021/05/08 03:19:26;;;;;;;15.80;11.20;;;5.80;97.70;;;;;;5073747;28;20017;-82
2021/05/08 03:21:52;;;;;;;14.27;11.40;;;5.70;97.80;;;;;;5072385;28;20025;-82
2021/05/08 03:24:17;;;;;;;14.30;10.98;;;5.70;97.90;;;;;;5073709;28;20025;-82
2021/05/08 03:26:43;;;;;;;16.58;10.70;;;5.60;97.90;;;;;;5073334;28;20103;-82
2021/05/08 03:29:09;;;;;;;15.52;11.23;;;5.60;98.10;;;;;;5073583;28;20379;-82
2021/05/08 03:31:35;;;;;;;14.30;10.93;;;5.60;98.20;;;;;;5072034;28;20054;-82
2021/05/08 03:34:01;;;;;;;15.70;11.57;;;5.50;98.30;;;;;;5072188;28;20024;-82
2021/05/08 03:36:26;;;;;;;14.77;10.75;;;5.50;98.30;;;;;;5072189;28;20029;-82
2021/05/08 03:38:52;;;;;;;14.65;10.40;;;5.50;98.30;;;;;;5072269;28;20410;-82
2021/05/08 03:41:18;;;;;;;14.50;11.00;;;5.50;98.20;;;;;;5072157;28;20563;-82
2021/05/08 03:43:44;;;;;;;14.55;9.52;;;5.50;98.20;;;;;;5073159;28;20107;-82
2021/05/08 03:46:10;;;;;;;16.63;10.35;;;5.50;98.30;;;;;;5071872;28;20029;-82
2021/05/08 03:48:36;;;;;;;12.52;9.98;;;5.50;98.40;;;;;;5072462;28;20102;-82
2021/05/08 03:51:02;;;;;;;13.85;9.73;;;5.50;98.40;;;;;;5073289;28;20476;-82
2021/05/08 03:53:27;;;;;;;13.45;9.70;;;5.60;98.30;;;;;;5073137;28;20032;-82
2021/05/08 03:55:53;;;;;;;12.38;9.85;;;5.60;98.30;;;;;;5071882;28;20059;-82
2021/05/08 03:58:27;;;;;;;12.95;9.73;;;5.50;98.30;;;;;;5073070;28;20093;-82
2021/05/08 04:00:53;;;;;;;14.23;10.13;;;5.50;98.30;;;;;;5071630;28;20028;-82
2021/05/08 04:03:19;;;;;;;14.80;10.07;;;5.60;98.30;;;;;;5071458;28;20078;-82
2021/05/08 04:05:44;;;;;;;15.88;10.55;;;5.60;98.20;;;;;;5070974;28;20028;-82
2021/05/08 04:08:11;;;;;;;14.38;10.27;;;5.60;98.10;;;;;;5072911;28;20020;-82
2021/05/08 04:10:36;;;;;;;13.23;10.07;;;5.60;98.00;;;;;;5071778;28;20484;-82
2021/05/08 04:13:02;;;;;;;13.48;9.38;;;5.60;97.90;;;;;;5072916;28;20032;-82
2021/05/08 04:15:28;;;;;;;12.52;9.02;;;5.60;97.90;;;;;;5072771;28;20032;-82
2021/05/08 04:17:53;;;;;;;11.40;9.00;;;5.60;97.90;;;;;;5073069;28;20052;-82
2021/05/08 04:20:19;;;;;;;16.58;10.88;;;5.70;97.90;;;;;;5072958;28;20017;-82
2021/05/08 04:22:45;;;;;;;13.93;8.77;;;5.70;97.80;;;;;;5071677;28;20025;-82
2021/05/08 04:25:11;;;;;;;11.48;9.55;;;5.70;97.80;;;;;;5073110;28;20029;-82
2021/05/08 04:27:36;;;;;;;11.90;9.50;;;5.80;97.70;;;;;;5071515;28;20029;-82
2021/05/08 04:30:03;;;;;;;11.63;8.45;;;5.80;97.70;;;;;;5072673;28;20027;-82
2021/05/08 04:32:29;;;;;;;11.32;8.25;;;5.80;97.70;;;;;;5072594;28;20513;-82
2021/05/08 04:34:54;;;;;;;10.90;8.70;;;5.90;97.80;;;;;;5071569;28;20039;-82
2021/05/08 04:37:20;;;;;;;11.35;9.32;;;6.00;97.70;;;;;;5071847;28;20468;-82
2021/05/08 04:39:45;;;;;;;12.13;8.88;;;6.10;97.50;;;;;;5061167;28;20025;-82
2021/05/08 04:42:11;;;;;;;13.82;8.82;;;6.10;97.40;;;;;;5087139;28;20074;-82
2021/05/08 04:44:36;;;;;;;12.13;8.95;;;6.10;97.40;;;;;;5070566;28;20024;-82
2021/05/08 04:47:03;;;;;;;13.15;8.75;;;6.10;97.40;;;;;;5072490;28;20056;-82
2021/05/08 04:49:29;;;;;;;12.57;8.68;;;6.20;97.30;;;;;;5072669;28;20024;-82
2021/05/08 04:51:55;;;;;;;13.18;9.38;;;6.20;97.40;;;;;;5072823;28;20078;-82
2021/05/08 04:54:21;;;;;;;12.77;8.63;;;6.20;97.40;;;;;;5068701;28;20163;-82
2021/05/08 04:56:47;;;;;;;11.38;8.10;;;6.20;97.30;;;;;;5052301;28;20353;-82
2021/05/08 04:59:13;;;;;;;13.65;9.05;;;6.20;97.10;;;;;;5052966;28;20124;-82
2021/05/08 05:01:38;;;;;;;11.70;8.77;;;6.20;96.70;;;;;;5054872;28;20495;-82
2021/05/08 05:04:04;;;;;;;11.98;9.40;;;6.30;96.40;;;;;;5071679;28;20054;-82
2021/05/08 05:06:29;;;;;;;12.80;8.55;;;6.30;96.40;;;;;;5054960;28;20029;-82
2021/05/08 05:08:55;;;;;;;11.38;8.10;;;6.40;96.60;;;;;;5055929;28;20103;-82
2021/05/08 05:11:22;;;;;;;14.15;8.88;;;6.40;95.80;;;;;;5055011;28;20025;-82
2021/05/08 05:13:48;;;;;;;12.77;8.35;;;6.40;95.70;;;;;;5055851;28;20052;-82
2021/05/08 05:16:14;;;;;;;9.00;7.60;;;6.50;95.40;;;;;;5063825;28;20158;-82
2021/05/08 05:18:39;;;;;;;10.40;8.18;;;6.50;95.50;;;;;;5074935;28;20108;-82
2021/05/08 05:21:05;;;;;;;11.05;8.00;;;6.60;95.50;;;;;;5076059;28;20544;-82
2021/05/08 05:23:31;;;;;;;11.55;7.78;;;6.70;95.50;;;;;;5074684;28;20495;-82
2021/05/08 05:25:56;;;;;;;10.23;8.02;;;6.70;95.10;;;;;;5074640;28;20361;-82
2021/05/08 05:28:24;;;;;;;10.38;7.85;;;6.80;94.90;;;;;;5074628;28;20031;-82
2021/05/08 05:30:51;;;;;;;10.02;7.53;;;6.80;94.80;;;;;;5074357;28;20017;-82
2021/05/08 05:33:17;;;;;;;15.18;9.43;;;6.90;94.50;;;;;;5075547;28;20051;-82
2021/05/08 05:35:42;;;;;;;13.65;8.15;;;6.90;94.40;;;;;;5074426;28;20028;-82
2021/05/08 05:38:08;;;;;;;10.10;7.65;;;7.00;94.60;;;;;;5074488;28;20016;-79
2021/05/08 05:40:34;;;;;;;11.80;7.88;;;7.10;94.10;;;;;;5075676;28;20074;-78
2021/05/08 05:42:59;;;;;;;11.15;8.13;;;7.10;94.00;;;;;;5075438;28;20020;-80
2021/05/08 05:45:25;;;;;;;9.95;7.90;;;7.20;94.10;;;;;;5074120;28;20024;-78
2021/05/08 05:47:58;;;;;;;9.05;6.80;;;7.30;93.80;;;;;;5074322;28;20051;-78
2021/05/08 05:50:27;;;;;;;11.32;7.93;;;7.40;93.20;;;;;;5074255;28;20073;-78
2021/05/08 05:52:53;;;;;;;10.10;6.90;;;7.50;93.00;;;;;;5075405;28;20043;-78
2021/05/08 05:55:26;;;;;;;12.65;8.13;;;7.50;93.20;;;;;;5075312;28;20529;-78
2021/05/08 05:57:54;;;;;;;13.00;7.97;;;7.50;92.80;;;;;;5074142;28;20123;-78
2021/05/08 06:00:20;;;;;;;12.32;8.25;;;7.60;93.00;;;;;;5073846;28;20043;-78
2021/05/08 06:02:46;;;;;;;12.23;8.52;;;7.60;93.20;;;;;;5073957;28;20494;-83
2021/05/08 06:05:11;;;;;;;11.10;8.32;;;7.60;93.20;;;;;;5075146;28;20032;-78
2021/05/08 06:07:37;;;;;;;11.95;8.13;;;7.70;92.60;;;;;;5073856;28;20475;-77
2021/05/08 06:10:05;;;;;;;13.93;8.77;;;7.70;92.50;;;;;;5074790;28;20036;-77
2021/05/08 06:12:31;;;;;;;12.45;8.82;;;7.80;92.20;;;;;;5071218;28;20031;-77
2021/05/08 06:14:56;;;;;;;10.98;8.68;;;7.90;92.50;;;;;;5074261;28;20025;-78
2021/05/08 06:17:22;;;;;;;12.60;8.70;;;8.00;92.30;;;;;;5072991;28;20029;-78
2021/05/08 06:19:47;;;;;;;11.60;8.40;;;8.00;92.10;;;;;;5074930;28;20020;-78
2021/05/08 06:22:13;;;;;;;11.20;8.30;;;8.00;92.10;;;;;;5074876;28;20023;-78
2021/05/08 06:24:38;;;;;;;15.30;10.55;;;8.00;92.00;;;;;;5074785;28;20483;-78
2021/05/08 06:27:04;;;;;;;13.27;9.70;;;8.00;92.40;;;;;;5074684;28;20032;-78
2021/05/08 06:29:30;;;;;;;12.57;9.02;;;8.10;92.80;;;;;;5073399;28;20043;-78
2021/05/08 06:31:55;;;;;;;15.82;8.70;;;8.10;92.50;;;;;;5073066;28;20068;-78
2021/05/08 06:34:21;;;;;;;14.65;8.90;;;8.20;92.00;;;;;;5072901;28;20036;-78
2021/05/08 06:36:46;;;;;;;11.18;8.25;;;8.20;91.50;;;;;;5072875;28;20017;-79
2021/05/08 06:39:12;;;;;;;16.40;9.18;;;8.30;91.30;;;;;;5072672;28;20502;-79
2021/05/08 06:41:38;;;;;;;13.05;8.77;;;8.30;91.20;;;;;;5074325;28;20025;-79
2021/05/08 06:44:04;;;;;;;12.93;8.85;;;8.30;91.00;;;;;;5073052;28;20437;-79
2021/05/08 06:46:29;;;;;;;12.60;8.70;;;8.40;90.80;;;;;;5072943;28;20111;-79
2021/05/08 06:48:55;;;;;;;11.38;8.90;;;8.40;90.80;;;;;;5073852;28;20138;-79
2021/05/08 06:51:20;;;;;;;14.15;8.90;;;8.40;91.00;;;;;;5073901;28;20020;-79
2021/05/08 06:53:46;;;;;;;13.35;8.85;;;8.50;90.50;;;;;;5072255;28;20020;-79
2021/05/08 06:56:13;;;;;;;15.75;9.90;;;8.50;91.50;;;;;;5073657;28;20032;-79
2021/05/08 06:58:40;;;;;;;14.55;8.57;;;8.50;91.50;;;;;;5072460;28;20020;-79
2021/05/08 07:01:06;;;;;;;13.23;9.10;;;8.60;91.30;;;;;;5073420;28;20021;-79
2021/05/08 07:03:31;;;;;;;13.73;8.43;;;8.60;91.50;;;;;;5073615;28;20126;-76
2021/05/08 07:05:57;;;;;;;14.38;8.57;;;8.70;91.30;;;;;;5073694;28;20028;-78
2021/05/08 07:08:22;;;;;;;13.73;8.52;;;8.70;90.80;;;;;;5072640;28;20059;-80
2021/05/08 07:10:50;;;;;;;11.90;8.07;;;8.70;90.50;;;;;;5073992;28;20028;-79
2021/05/08 07:13:16;;;;;;;13.82;9.35;;;8.80;90.10;;;;;;5073899;28;20027;-78
2021/05/08 07:15:41;;;;;;;13.07;8.38;;;8.90;90.00;;;;;;5072356;28;20028;-78
2021/05/08 07:18:08;;;;;;;12.77;8.75;;;9.00;90.60;;;;;;5073527;28;20025;-78
2021/05/08 07:20:36;;;;;;;10.73;8.85;;;9.10;90.30;;;;;;5072554;28;20021;-78
2021/05/08 07:23:03;;;;;;;11.88;9.40;;;9.10;90.30;;;;;;5072315;28;20021;-78
2021/05/08 07:25:28;;;;;;;12.90;9.35;;;9.10;90.00;;;;;;5073675;28;20035;-78
2021/05/08 07:28:07;;;;;;;10.68;8.82;;;9.20;90.70;;;;;;5072250;28;20024;-78
2021/05/08 07:30:33;;;;;;;10.40;8.27;;;9.30;90.20;;;;;;5072199;28;20089;-79
2021/05/08 07:32:58;;;;;;;12.38;9.38;;;9.30;90.80;;;;;;5072896;28;20565;-78
2021/05/08 07:35:24;;;;;;;11.77;8.88;;;9.40;90.10;;;;;;5071756;28;20064;-78
2021/05/08 07:37:50;;;;;;;12.68;8.85;;;9.40;90.20;;;;;;5072856;28;20028;-78
2021/05/08 07:40:15;;;;;;;13.52;8.43;;;9.40;90.60;;;;;;5073253;28;20020;-79
2021/05/08 07:42:41;;;;;;;13.90;9.68;;;9.50;90.20;;;;;;5073371;28;20127;-78
2021/05/08 07:45:10;;;;;;;11.65;8.80;;;9.60;90.70;;;;;;5072024;28;20070;-78
2021/05/08 07:47:35;;;;;;;12.63;8.35;;;9.70;90.20;;;;;;5071886;28;20099;-78
2021/05/08 07:50:01;;;;;;;11.32;8.98;;;9.80;90.00;;;;;;5073219;28;20032;-78
2021/05/08 07:52:26;;;;;;;11.90;9.35;;;9.80;90.20;;;;;;5071964;28;20029;-78
2021/05/08 07:54:52;;;;;;;11.98;9.05;;;9.90;90.60;;;;;;5071901;28;20384;-78
2021/05/08 07:57:17;;;;;;;12.20;8.38;;;10.00;90.10;;;;;;5071483;28;20154;-78
2021/05/08 07:59:43;;;;;;;11.40;8.77;;;10.00;88.90;;;;;;5070788;28;20146;-78
2021/05/08 08:02:08;;;;;;;11.88;8.32;;;10.00;88.20;;;;;;5071683;28;20031;-78
2021/05/08 08:04:34;;;;;;;10.75;8.10;;;10.10;89.20;;;;;;5072942;28;20071;-78
2021/05/08 08:06:59;;;;;;;11.88;7.88;;;10.10;87.60;;;;;;5073088;28;20529;-78
2021/05/08 08:09:25;;;;;;;14.13;7.97;;;10.20;87.70;;;;;;5069793;28;20551;-78
2021/05/08 08:11:50;;;;;;;12.07;8.75;;;10.20;86.80;;;;;;5071727;28;20017;-78
2021/05/08 08:14:16;;;;;;;11.73;7.32;;;10.30;87.00;;;;;;5072826;28;20138;-78
2021/05/08 08:16:41;;;;;;;9.88;7.53;;;10.30;84.80;;;;;;5072783;28;20035;-80
2021/05/08 08:19:07;;;;;;;8.35;5.85;;;10.40;84.80;;;;;;5071407;28;20027;-78
2021/05/08 08:21:32;;;;;;;10.95;7.20;;;10.50;84.90;;;;;;5046555;28;20035;-78
2021/05/08 08:23:58;;;;;;;11.82;6.65;;;10.50;86.10;;;;;;5048462;28;20032;-80
2021/05/08 08:26:23;;;;;;;10.40;6.53;;;10.60;86.60;;;;;;5065550;28;20074;-80
2021/05/08 08:28:49;;;;;;;7.97;5.80;;;10.80;86.30;;;;;;5088443;28;20029;-80
2021/05/08 08:31:15;;;;;;;7.70;5.75;;;10.80;83.80;;;;;;5088208;28;20047;-80
2021/05/08 08:33:40;;;;;;;9.25;5.40;;;10.90;84.10;;;;;;5071122;28;20024;-81
2021/05/08 08:36:06;;;;;;;7.97;5.53;;;11.00;80.90;;;;;;5072393;28;20020;-82
2021/05/08 08:38:31;;;;;;;8.93;5.32;;;11.10;81.20;;;;;;5047742;28;20537;-76
2021/05/08 08:40:57;;;;;;;8.65;5.30;;;11.20;80.10;;;;;;5051952;28;20537;-80
2021/05/08 08:43:23;;;;;;;7.43;5.53;;;11.20;79.10;;;;;;5074773;28;20078;-80
2021/05/08 08:45:49;;;;;;;10.48;5.00;;;11.30;80.90;;;;;;5076150;28;20016;-77
2021/05/08 08:48:15;;;;;;;10.02;5.28;;;11.30;79.40;;;;;;5074983;28;20021;-77
2021/05/08 08:50:41;;;;;;;7.22;4.88;;;11.40;79.50;;;;;;5074482;28;20039;-77
2021/05/08 08:53:09;;;;;;;10.32;5.05;;;11.50;79.60;;;;;;5076075;28;20048;-78
2021/05/08 08:55:41;;;;;;;7.80;5.07;;;11.60;77.90;;;;;;5075576;28;20024;-77
2021/05/08 08:58:07;;;;;;;8.38;4.55;;;11.80;77.80;;;;;;5076468;28;20025;-77
2021/05/08 09:00:33;;;;;;;7.70;5.25;;;11.80;76.50;;;;;;5075169;28;20025;-77
2021/05/08 09:03:00;;;;;;;8.55;5.65;;;11.80;76.10;;;;;;5075080;28;20051;-77
2021/05/08 09:05:26;;;;;;;7.68;4.95;;;11.80;78.70;;;;;;5075321;28;20036;-77
2021/05/08 09:07:53;;;;;;;10.80;5.80;;;11.80;75.30;;;;;;5075617;28;20032;-77
2021/05/08 09:10:24;;;;;;;6.63;4.85;;;11.80;76.10;;;;;;5073148;28;20031;-77
2021/05/08 09:12:50;;;;;;;8.75;6.00;;;11.90;77.30;;;;;;5073720;28;20062;-77
2021/05/08 09:15:29;;;;;;;9.93;5.70;;;12.00;76.00;;;;;;5073511;28;20025;-77
2021/05/08 09:17:54;;;;;;;8.65;5.47;;;12.10;76.70;;;;;;5073579;28;20067;-77
2021/05/08 09:20:20;;;;;;;7.97;5.78;;;12.10;77.10;;;;;;5074013;28;20013;-77
2021/05/08 09:22:46;;;;;;;9.25;5.80;;;12.30;76.30;;;;;;5075510;28;20017;-77
2021/05/08 09:25:16;;;;;;;9.38;5.30;;;12.40;75.60;;;;;;5075420;28;20447;-77
2021/05/08 09:27:49;;;;;;;11.00;5.95;;;12.60;74.40;;;;;;5072044;28;20060;-78
2021/05/08 09:30:21;;;;;;;9.50;5.65;;;12.80;75.00;;;;;;5075287;28;20025;-77
2021/05/08 09:33:07;;;;;;;9.30;5.70;;;13.00;72.60;;;;;;5073793;28;20055;-77
2021/05/08 09:35:35;;;;;;;11.45;5.38;;;13.30;72.80;;;;;;5072540;28;21467;-77
2021/05/08 09:38:16;;;;;;;11.48;4.97;;;13.50;72.00;;;;;;5088434;28;20035;-77
2021/05/08 09:40:46;;;;;;;10.02;5.30;;;13.60;72.60;;;;;;5074808;28;20047;-78
2021/05/08 09:43:17;;;;;;;7.18;5.22;;;13.60;70.30;;;;;;5074084;28;20150;-79
2021/05/08 09:45:45;;;;;;;9.45;5.22;;;13.50;71.40;;;;;;5072924;28;20029;-79
2021/05/08 09:48:18;;;;;;;8.07;4.90;;;13.50;71.70;;;;;;5074323;28;20032;-80
2021/05/08 09:50:44;;;;;;;8.10;5.30;;;13.50;71.30;;;;;;5075510;28;20024;-78
2021/05/08 09:53:10;;;;;;;8.52;5.80;;;13.40;69.30;;;;;;5077192;28;20518;-78
2021/05/08 09:55:35;;;;;;;6.65;4.50;;;13.40;70.80;;;;;;5081886;28;20430;-78
2021/05/08 09:58:08;;;;;;;7.30;5.47;;;13.30;71.80;;;;;;5074871;28;20017;-78
2021/05/08 10:00:33;;;;;;;8.70;5.03;;;13.30;70.80;;;;;;5073886;28;20036;-78
2021/05/08 10:03:06;;;;;;;9.20;5.47;;;13.20;70.30;;;;;;5078583;28;20028;-78
2021/05/08 10:05:32;;;;;;;7.25;5.63;;;13.20;71.80;;;;;;5087920;28;20458;-77
2021/05/08 10:07:57;;;;;;;7.95;4.68;;;13.20;72.60;;;;;;5075060;28;20119;-77
2021/05/08 10:10:24;;;;;;;9.63;5.25;;;13.20;74.70;;;;;;5075595;28;20098;-77
2021/05/08 10:12:50;;;;;;;5.15;4.00;;;13.20;76.20;;;;;;5075305;28;20123;-78
2021/05/08 10:15:16;;;;;;;7.97;5.18;;;13.20;76.20;;;;;;5074228;28;20028;-80
2021/05/08 10:17:46;;;;;;;7.15;4.78;;;13.10;73.80;;;;;;5069652;28;20484;-78
2021/05/08 10:20:13;;;;;;;6.90;4.40;;;13.20;72.70;;;;;;5073080;28;20515;-78
2021/05/08 10:22:44;;;;;;;9.13;5.65;;;13.30;73.30;;;;;;5085111;28;20024;-78
2021/05/08 10:25:11;;;;;;;8.88;5.25;;;13.40;72.70;;;;;;5082019;28;20020;-79
2021/05/08 10:27:36;;;;;;;8.25;4.95;;;13.50;73.80;;;;;;5079080;28;20036;-83
2021/05/08 10:30:05;;;;;;;6.18;4.97;;;13.50;74.00;;;;;;5066797;28;20028;-78
2021/05/08 10:32:31;;;;;;;7.93;4.18;;;13.60;75.60;;;;;;5083940;28;20052;-77
2021/05/08 10:35:02;;;;;;;8.02;3.30;;;13.50;72.80;;;;;;5088602;28;20027;-77
2021/05/08 10:37:29;;;;;;;7.47;4.50;;;13.40;71.70;;;;;;5081734;28;20126;-77
2021/05/08 10:40:00;;;;;;;6.63;3.25;;;13.40;74.80;;;;;;5072031;28;20012;-78
2021/05/08 10:42:49;;;;;;;7.60;3.67;;;13.20;73.50;;;;;;5084039;28;20009;-78
2021/05/08 10:45:18;;;;;;;7.45;3.65;;;13.10;75.90;;;;;;5064631;28;20494;-77
2021/05/08 10:47:53;;;;;;;4.10;3.08;;;12.90;74.60;;;;;;5081673;28;20028;-77
2021/05/08 10:50:28;;;;;;;4.88;3.10;;;12.90;76.70;;;;;;5088628;28;20059;-78
2021/05/08 10:53:06;;;;;;;5.70;3.10;;;12.80;74.70;;;;;;5054370;28;20075;-77
2021/05/08 10:55:58;;;;;;;5.22;2.92;;;12.90;76.10;;;;;;5060117;28;20040;-77
2021/05/08 10:58:25;;;;;;;5.03;2.85;;;12.70;77.40;;;;;;5080586;28;20036;-77
2021/05/08 11:00:51;;;;;;;6.72;2.92;;;12.50;77.10;;;;;;5060146;28;20387;-77
2021/05/08 11:03:18;;;;;;;4.05;2.70;;;12.50;78.30;;;;;;5069533;28;20032;-76
2021/05/08 11:05:52;;;;;;;6.90;2.85;;;12.40;80.80;;;;;;5075738;28;20028;-77
2021/05/08 11:08:27;;;;;;;5.90;3.08;;;12.40;80.70;;;;;;5069836;28;20028;-77
2021/05/08 11:10:57;;;;;;;7.55;2.80;;;12.40;83.00;;;;;;5083501;28;20506;-77
2021/05/08 11:13:25;;;;;;;6.07;2.67;;;12.30;82.30;;;;;;5084482;28;20086;-77
2021/05/08 11:15:51;;;;;;;5.63;2.92;;;12.30;84.80;;;;;;5068039;28;20067;-77
2021/05/08 11:18:35;;;;;;;4.32;2.80;;;12.20;85.50;;;;;;5076892;28;20036;-77
2021/05/08 11:21:18;;;;;;;3.75;2.47;;;12.20;86.60;;;;;;5075240;28;20440;-77
2021/05/08 11:23:48;;;;;;;4.97;3.35;;;12.10;87.00;;;;;;5069346;28;20035;-77
2021/05/08 11:26:23;;;;;;;4.78;3.03;;;12.00;88.40;;;;;;5070510;28;20020;-78
2021/05/08 11:29:15;;;;;;;4.43;3.10;;;12.00;89.30;;;;;;5085562;28;20609;-79
2021/05/08 11:31:50;;;;;;;6.28;3.38;;;11.90;91.10;;;;;;5071639;28;20055;-78
2021/05/08 11:34:18;;;;;;;4.95;3.40;;;11.80;91.90;;;;;;5072059;28;20024;-78
2021/05/08 11:36:52;;;;;;;6.65;3.28;;;11.70;92.90;;;;;;5068604;28;20016;-79
2021/05/08 11:39:21;;;;;;;4.53;3.47;;;11.50;94.70;;;;;;5088116;28;20044;-80
2021/05/08 11:41:50;;;;;;;5.88;4.32;;;11.20;96.30;;;;;;5070005;28;20025;-79
2021/05/08 11:44:24;;;;;;;5.68;3.85;;;10.90;97.70;;;;;;5088010;28;20024;-79
2021/05/08 11:47:04;;;;;;;5.85;3.67;;;10.80;99.60;;;;;;5074742;28;20530;-80
2021/05/08 11:49:30;;;;;;;;;;;10.70;99.10;;;;;;5072447;28;20024;-78
2021/05/08 11:51:56;;;;;;;10.00;3.88;;;10.60;99.90;;;;;;5073289;28;19905;-80
2021/05/08 11:54:22;;;;;;;5.88;4.20;;;10.40;99.90;;;;;;5056608;28;20074;-80
2021/05/08 11:56:48;;;;;;;8.05;4.22;;;10.30;99.90;;;;;;5072209;28;20016;-80
2021/05/08 11:59:13;;;;;;;6.80;4.57;;;10.20;99.90;;;;;;5072320;28;20529;-80
2021/05/08 12:01:39;;;;;;;8.13;5.25;;;10.20;99.90;;;;;;5070962;28;20031;-80
2021/05/08 12:04:06;;;;;;;6.93;5.25;;;10.20;99.90;;;;;;5070845;28;20032;-80
2021/05/08 12:06:31;;;;;;;7.22;5.57;;;10.20;99.90;;;;;;5085749;28;20021;-79
2021/05/08 12:08:57;;;;;;;8.60;5.38;;;10.20;99.90;;;;;;5086784;28;20111;-79
2021/05/08 12:11:24;;;;;;;7.82;5.55;;;10.30;99.90;;;;;;5087530;28;20463;-80
2021/05/08 12:13:49;;;;;;;8.32;5.70;;;10.30;99.90;;;;;;5070898;28;20036;-80
2021/05/08 12:16:16;;;;;;;9.10;5.15;;;10.20;99.90;;;;;;5070342;28;20024;-78
2021/05/08 12:18:42;;;;;;;9.50;5.55;;;10.10;99.90;;;;;;5071186;28;20058;-78
2021/05/08 12:21:12;;;;;;;7.70;5.75;;;10.10;99.90;;;;;;5070187;28;20024;-79
2021/05/08 12:23:38;;;;;;;10.20;5.95;;;10.00;99.90;;;;;;5059481;28;20028;-79
2021/05/08 12:26:16;;;;;;;7.82;5.75;;;10.00;99.90;;;;;;5070960;28;20021;-79
2021/05/08 12:28:55;;;;;;;6.85;5.28;;;10.00;99.90;;;;;;5068830;28;20031;-79
2021/05/08 12:31:29;;;;;;;8.43;5.60;;;10.00;99.90;;;;;;5072200;28;20053;-79
2021/05/08 12:34:05;;;;;;;7.68;5.65;;;9.90;99.90;;;;;;5070753;28;20036;-80
2021/05/08 12:36:32;;;;;;;8.25;5.53;;;10.00;99.90;;;;;;5073598;28;20021;-79
2021/05/08 12:39:19;;;;;;;7.97;5.45;;;9.90;99.90;;;;;;5084392;28;20066;-80
2021/05/08 12:41:53;;;;;;;7.05;5.72;;;9.90;99.90;;;;;;5073347;28;20020;-80
2021/05/08 12:44:37;;;;;;;8.10;5.80;;;9.90;99.90;;;;;;5068461;28;20024;-80
2021/05/08 12:47:18;;;;;;;7.93;6.05;;;9.90;99.90;;;;;;5074762;28;20032;-80